Pagrindinis puslapis
METAR-TAF:

METAR-TAF

Oro uostai :

Kalmaras, Švedija

platuma: 56-44N, ilguma: 016-18E, Aukštis: 16 m

Dabartinis oras

Ataskaita buvo paskelbta 16 minutes, ne 03:50 UTC
Vėjas 1 kt iš Šiaurės/Šiaurės Vakarų
Temperatūra 6°C
Drėgmė 100%
Slėgis 1005 hPa
Matomumas: 7000 m

METAR: ESMQ 230350Z 34001KT 7000 NSC 06/06 Q1005

Laikas: 06:06 (04:06 UTC)

Prognozė

Ataskaita buvo paskelbta 36 minutes, ne 03:30 UTC
Prognozė galioja nuo 23 metu 04 UTC su 23 metu 12 UTC
Vėjas 2 kt nuo kintamojo kryptimis
Matomumas 10 km arba daugiau
nėra debesų žemiau 1500 m ir nėra kamuolinių lietaus debesų
Tikimybė 40%
nuo 23 metu 04 UTC su 23 metu 08 UTC
Matomumas: 0200 m
ne aukštis 200 ft
rūkas

TAF: ESMQ 230330Z 2304/2312 VRB02KT CAVOK PROB40 2304/2308 0200 FG VV002

Orai ataskaitas ir orų prognozės (METAR, TAF).

turimą stotys yra geltonos ir raudonos taškus žemėlapyje.

Perkelti pele per norėdami pamatyti stoties vardą.

Tada spustelėkite, norėdami matyti oro stebėjimo ir prognozės.

Norėdami pakeisti žemėlapį: spustelėkite ant žalios mygtukų su juodo kryžiaus žemyn,; žalią mygtuką su brūkšneliu, jei norite nutolinti; arba žalių rodyklių gretimoms žemėlapius.


METAR-TAF: